Time;durP1;ratioP1;P1;durP2;ratioP2;P2;SDS_P1;SDS_P2;PMS_P1;PMS_P2;Temp;Humidity;BMP_temperature;BMP_pressure;BME280_temperature;BME280_humidity;BME280_pressure;Samples;Min_cycle;Max_cycle;Signal;HPM_P1;HPM_P2
2024/01/04 00:02:25;;;;;;;;;;;;;;;;;;5142981;28;19964;-57
2024/01/04 00:04:57;;;;;;;;;;;;;;;;;;5127232;28;19991;-58
2024/01/04 00:07:28;;;;;;;;;;;;;;;;;;5143367;28;19961;-57
2024/01/04 00:09:59;;;;;;;;;;;;;;;;;;5139960;28;20440;-57
2024/01/04 00:12:30;;;;;;;;;;;;;;;;;;5144937;28;20031;-57
2024/01/04 00:15:03;;;;;;;;;;;;;;;;;;5132892;28;20369;-57
2024/01/04 00:17:34;;;;;;;;;;;;;;;;;;5149296;28;19937;-56
2024/01/04 00:20:09;;;;;;;;;;;;;;;;;;5142961;28;20262;-56
2024/01/04 00:22:40;;;;;;;;;;;;;;;;;;5143085;28;19925;-56
2024/01/04 00:25:11;;;;;;;;;;;;;;;;;;5126772;28;19926;-56
2024/01/04 00:27:42;;;;;;;;;;;;;;;;;;5142310;28;19922;-56
2024/01/04 00:30:13;;;;;;;;;;;;;;;;;;5126788;28;20362;-55
2024/01/04 00:32:45;;;;;;;;;;;;;;;;;;5126854;28;19984;-55
2024/01/04 00:35:16;;;;;;;;;;;;;;;;;;5142459;28;19925;-56
2024/01/04 00:37:47;;;;;;;;;;;;;;;;;;5142583;28;19918;-56
2024/01/04 00:40:18;;;;;;;;;;;;;;;;;;5126993;28;19922;-56
2024/01/04 00:42:49;;;;;;;;;;;;;;;;;;5142947;28;19922;-56
2024/01/04 00:45:20;;;;;;;;;;;;;;;;;;5142707;28;20005;-56
2024/01/04 00:47:51;;;;;;;;;;;;;;;;;;5126162;28;20001;-56
2024/01/04 00:50:22;;;;;;;;;;;;;;;;;;5142411;28;19925;-56
2024/01/04 00:52:53;;;;;;;;;;;;;;;;;;5126110;28;19918;-56
2024/01/04 00:55:24;;;;;;;;;;;;;;;;;;5142393;28;19958;-56
2024/01/04 00:57:55;;;;;;;;;;;;;;;;;;5145859;28;19929;-56
2024/01/04 01:00:26;;;;;;;;;;;;;;;;;;5126304;28;19918;-58
2024/01/04 01:02:57;;;;;;;;;;;;;;;;;;5155302;28;20427;-57
2024/01/04 01:05:28;;;;;;;;;;;;;;;;;;5126160;28;19922;-57
2024/01/04 01:08:01;;;;;;;;;;;;;;;;;;5126816;28;19926;-57
2024/01/04 01:10:34;;;;;;;;;;;;;;;;;;5143983;28;19992;-57
2024/01/04 01:13:05;;;;;;;;;;;;;;;;;;5143934;28;19918;-57
2024/01/04 01:15:39;;;;;;;;;;;;;;;;;;5126337;28;19921;-58
2024/01/04 01:18:10;;;;;;;;;;;;;;;;;;5125826;28;19914;-58
2024/01/04 01:20:41;;;;;;;;;;;;;;;;;;5142388;28;19922;-59
2024/01/04 01:23:12;;;;;;;;;;;;;;;;;;5142425;28;19918;-57
2024/01/04 01:25:43;;;;;;;;;;;;;;;;;;5142398;28;19918;-57
2024/01/04 01:28:14;;;;;;;;;;;;;;;;;;5128265;28;19945;-57
2024/01/04 01:30:45;;;;;;;;;;;;;;;;;;5125477;28;20005;-57
2024/01/04 01:33:16;;;;;;;;;;;;;;;;;;5142236;28;20019;-58
2024/01/04 01:35:47;;;;;;;;;;;;;;;;;;5142333;28;19922;-56
2024/01/04 01:38:18;;;;;;;;;;;;;;;;;;5122230;28;19922;-57
2024/01/04 01:40:49;;;;;;;;;;;;;;;;;;5131435;28;19973;-57
2024/01/04 01:43:20;;;;;;;;;;;;;;;;;;5132375;28;19925;-57
2024/01/04 01:45:51;;;;;;;;;;;;;;;;;;5148608;28;19996;-57
2024/01/04 01:48:25;;;;;;;;;;;;;;;;;;5133959;28;19925;-56
2024/01/04 01:50:56;;;;;;;;;;;;;;;;;;5154959;28;19945;-57
2024/01/04 01:53:27;;;;;;;;;;;;;;;;;;5142605;28;19922;-57
2024/01/04 01:55:58;;;;;;;;;;;;;;;;;;5142220;28;20267;-57
2024/01/04 01:58:29;;;;;;;;;;;;;;;;;;5142791;28;19922;-57
2024/01/04 02:01:00;;;;;;;;;;;;;;;;;;5141846;28;19985;-57
2024/01/04 02:03:31;;;;;;;;;;;;;;;;;;5142307;28;19918;-57
2024/01/04 02:06:02;;;;;;;;;;;;;;;;;;5144872;28;19925;-57
2024/01/04 02:08:33;;;;;;;;;;;;;;;;;;5131043;28;19945;-57
2024/01/04 02:11:05;;;;;;;;;;;;;;;;;;5157566;28;19964;-57
2024/01/04 02:13:37;;;;;;;;;;;;;;;;;;5129644;28;19922;-58
2024/01/04 02:16:08;;;;;;;;;;;;;;;;;;5146489;28;20400;-57
2024/01/04 02:18:39;;;;;;;;;;;;;;;;;;5145915;28;19917;-57
2024/01/04 02:21:10;;;;;;;;;;;;;;;;;;5141981;28;20392;-57
2024/01/04 02:23:41;;;;;;;;;;;;;;;;;;5147652;28;19918;-57
2024/01/04 02:26:12;;;;;;;;;;;;;;;;;;5145753;28;20416;-57
2024/01/04 02:28:43;;;;;;;;;;;;;;;;;;5130054;28;19922;-57
2024/01/04 02:31:14;;;;;;;;;;;;;;;;;;5145211;28;19924;-57
2024/01/04 02:33:45;;;;;;;;;;;;;;;;;;5145200;28;19957;-57
2024/01/04 02:36:16;;;;;;;;;;;;;;;;;;5144961;28;20448;-57
2024/01/04 02:38:47;;;;;;;;;;;;;;;;;;5145670;28;19979;-57
2024/01/04 02:41:18;;;;;;;;;;;;;;;;;;5144954;28;19917;-57
2024/01/04 02:43:49;;;;;;;;;;;;;;;;;;5144973;28;19937;-58
2024/01/04 02:46:20;;;;;;;;;;;;;;;;;;5158358;28;19917;-57
2024/01/04 02:48:51;;;;;;;;;;;;;;;;;;5152405;28;20308;-58
2024/01/04 02:51:22;;;;;;;;;;;;;;;;;;5145025;28;19918;-58
2024/01/04 02:53:53;;;;;;;;;;;;;;;;;;5144770;28;19918;-56
2024/01/04 02:56:24;;;;;;;;;;;;;;;;;;5128741;28;20346;-57
2024/01/04 02:58:55;;;;;;;;;;;;;;;;;;5144860;28;19945;-56
2024/01/04 03:01:26;;;;;;;;;;;;;;;;;;5128540;28;19978;-57
2024/01/04 03:03:57;;;;;;;;;;;;;;;;;;5144385;28;20330;-56
2024/01/04 03:06:30;;;;;;;;;;;;;;;;;;5144893;28;19922;-57
2024/01/04 03:09:01;;;;;;;;;;;;;;;;;;5144723;28;20408;-58
2024/01/04 03:11:32;;;;;;;;;;;;;;;;;;5144537;28;19938;-58
2024/01/04 03:14:03;;;;;;;;;;;;;;;;;;5144252;28;19921;-57
2024/01/04 03:16:34;;;;;;;;;;;;;;;;;;5124816;28;19982;-60
2024/01/04 03:19:05;;;;;;;;;;;;;;;;;;5144596;28;19969;-61
2024/01/04 03:21:36;;;;;;;;;;;;;;;;;;5128349;28;19925;-60
2024/01/04 03:24:07;;;;;;;;;;;;;;;;;;5128349;28;19918;-60
2024/01/04 03:26:38;;;;;;;;;;;;;;;;;;5128010;28;19973;-60
2024/01/04 03:29:09;;;;;;;;;;;;;;;;;;5144112;28;20412;-59
2024/01/04 03:31:40;;;;;;;;;;;;;;;;;;5127910;28;20017;-60
2024/01/04 03:34:11;;;;;;;;;;;;;;;;;;5136181;28;19918;-59
2024/01/04 03:36:42;;;;;;;;;;;;;;;;;;5144472;28;20257;-59
2024/01/04 03:39:13;;;;;;;;;;;;;;;;;;5144067;28;19926;-59
2024/01/04 03:41:44;;;;;;;;;;;;;;;;;;5143774;28;19988;-59
2024/01/04 03:44:15;;;;;;;;;;;;;;;;;;5127908;28;19925;-59
2024/01/04 03:46:46;;;;;;;;;;;;;;;;;;5144013;28;20420;-60
2024/01/04 03:49:17;;;;;;;;;;;;;;;;;;5144224;28;19972;-60
2024/01/04 03:51:48;;;;;;;;;;;;;;;;;;5127542;28;19984;-60
2024/01/04 03:54:19;;;;;;;;;;;;;;;;;;5127768;28;19921;-59
2024/01/04 03:56:50;;;;;;;;;;;;;;;;;;5143629;28;19918;-59
2024/01/04 03:59:21;;;;;;;;;;;;;;;;;;5127369;28;19965;-61
2024/01/04 04:01:52;;;;;;;;;;;;;;;;;;5148454;28;20329;-63
2024/01/04 04:04:23;;;;;;;;;;;;;;;;;;5126848;28;19917;-61
2024/01/04 04:06:54;;;;;;;;;;;;;;;;;;5142855;28;19926;-61
2024/01/04 04:09:25;;;;;;;;;;;;;;;;;;5143418;28;19921;-60
2024/01/04 04:11:56;;;;;;;;;;;;;;;;;;5132611;28;19918;-60
2024/01/04 04:14:27;;;;;;;;;;;;;;;;;;5126957;28;19940;-57
2024/01/04 04:16:58;;;;;;;;;;;;;;;;;;5143599;28;19985;-57
2024/01/04 04:19:29;;;;;;;;;;;;;;;;;;5143215;28;19945;-56
2024/01/04 04:22:00;;;;;;;;;;;;;;;;;;5143214;28;20200;-56
2024/01/04 04:24:31;;;;;;;;;;;;;;;;;;5151990;28;19965;-56
2024/01/04 04:27:03;;;;;;;;;;;;;;;;;;5142532;28;19922;-57
2024/01/04 04:29:34;;;;;;;;;;;;;;;;;;5143319;28;20019;-57
2024/01/04 04:32:05;;;;;;;;;;;;;;;;;;5145631;28;19953;-57
2024/01/04 04:34:37;;;;;;;;;;;;;;;;;;5143383;28;19918;-56
2024/01/04 04:37:08;;;;;;;;;;;;;;;;;;5146489;28;19918;-56
2024/01/04 04:39:39;;;;;;;;;;;;;;;;;;5146970;28;19921;-56
2024/01/04 04:42:10;;;;;;;;;;;;;;;;;;5142842;28;19918;-56
2024/01/04 04:44:41;;;;;;;;;;;;;;;;;;5152195;28;19914;-56
2024/01/04 04:47:13;;;;;;;;;;;;;;;;;;5126828;28;20282;-56
2024/01/04 04:49:44;;;;;;;;;;;;;;;;;;5130311;28;20334;-59
2024/01/04 04:52:16;;;;;;;;;;;;;;;;;;5143107;28;20328;-59
2024/01/04 04:54:47;;;;;;;;;;;;;;;;;;5126468;28;19918;-60
2024/01/04 04:57:18;;;;;;;;;;;;;;;;;;5126568;28;19949;-56
2024/01/04 04:59:49;;;;;;;;;;;;;;;;;;5142537;28;19973;-57
2024/01/04 05:02:20;;;;;;;;;;;;;;;;;;5136975;28;19957;-56
2024/01/04 05:04:51;;;;;;;;;;;;;;;;;;5131623;28;20008;-56
2024/01/04 05:07:22;;;;;;;;;;;;;;;;;;5127197;28;20342;-59
2024/01/04 05:09:53;;;;;;;;;;;;;;;;;;5125931;28;19918;-59
2024/01/04 05:12:24;;;;;;;;;;;;;;;;;;5142400;28;19918;-59
2024/01/04 05:14:55;;;;;;;;;;;;;;;;;;5126398;28;19929;-60
2024/01/04 05:17:26;;;;;;;;;;;;;;;;;;5142290;28;19944;-59
2024/01/04 05:19:57;;;;;;;;;;;;;;;;;;5125990;28;19930;-60
2024/01/04 05:22:28;;;;;;;;;;;;;;;;;;5138448;28;19988;-59
2024/01/04 05:24:59;;;;;;;;;;;;;;;;;;5142439;28;19937;-61
2024/01/04 05:27:30;;;;;;;;;;;;;;;;;;5141738;28;19972;-57
2024/01/04 05:30:02;;;;;;;;;;;;;;;;;;5158407;28;19979;-60
2024/01/04 05:32:33;;;;;;;;;;;;;;;;;;5141916;28;19918;-60
2024/01/04 05:35:04;;;;;;;;;;;;;;;;;;5126120;28;19922;-60
2024/01/04 05:37:35;;;;;;;;;;;;;;;;;;5125976;28;19918;-56
2024/01/04 05:40:06;;;;;;;;;;;;;;;;;;5141563;28;19925;-56
2024/01/04 05:42:37;;;;;;;;;;;;;;;;;;5141665;28;19925;-56
2024/01/04 05:45:08;;;;;;;;;;;;;;;;;;5125862;28;19922;-56
2024/01/04 05:47:39;;;;;;;;;;;;;;;;;;5126035;28;20274;-56
2024/01/04 05:50:10;;;;;;;;;;;;;;;;;;5125191;28;19918;-56
2024/01/04 05:52:41;;;;;;;;;;;;;;;;;;5137395;28;19917;-55
2024/01/04 05:55:12;;;;;;;;;;;;;;;;;;5148279;28;19921;-58
2024/01/04 05:57:43;;;;;;;;;;;;;;;;;;5143483;28;20385;-57
2024/01/04 06:00:15;;;;;;;;;;;;;;;;;;5125802;28;19918;-56
2024/01/04 06:02:46;;;;;;;;;;;;;;;;;;5125389;28;19972;-56
2024/01/04 06:05:17;;;;;;;;;;;;;;;;;;5140379;28;19918;-56
2024/01/04 06:07:48;;;;;;;;;;;;;;;;;;5140305;28;19941;-56
2024/01/04 06:10:20;;;;;;;;;;;;;;;;;;5141997;28;20273;-56
2024/01/04 06:12:51;;;;;;;;;;;;;;;;;;5125284;28;19925;-56
2024/01/04 06:15:22;;;;;;;;;;;;;;;;;;5141282;28;19918;-56
2024/01/04 06:17:53;;;;;;;;;;;;;;;;;;5147355;28;20341;-56
2024/01/04 06:20:24;;;;;;;;;;;;;;;;;;5143723;28;19929;-57
2024/01/04 06:22:55;;;;;;;;;;;;;;;;;;5141695;28;19929;-57
2024/01/04 06:25:27;;;;;;;;;;;;;;;;;;5141324;28;20265;-56
2024/01/04 06:27:58;;;;;;;;;;;;;;;;;;5141670;28;20040;-56
2024/01/04 06:30:29;;;;;;;;;;;;;;;;;;5141302;28;19968;-56
2024/01/04 06:33:00;;;;;;;;;;;;;;;;;;5141450;28;19921;-58
2024/01/04 06:35:31;;;;;;;;;;;;;;;;;;5125505;28;19989;-60
2024/01/04 06:38:08;;;;;;;;;;;;;;;;;;5125629;28;20388;-60
2024/01/04 06:40:39;;;;;;;;;;;;;;;;;;5141783;28;20321;-60
2024/01/04 06:43:10;;;;;;;;;;;;;;;;;;5125522;28;20384;-59
2024/01/04 06:45:41;;;;;;;;;;;;;;;;;;5125702;28;19926;-59
2024/01/04 06:48:12;;;;;;;;;;;;;;;;;;5141284;28;19926;-60
2024/01/04 06:50:43;;;;;;;;;;;;;;;;;;5143192;28;20468;-60
2024/01/04 06:53:14;;;;;;;;;;;;;;;;;;5144181;28;20014;-60
2024/01/04 06:55:45;;;;;;;;;;;;;;;;;;5154723;28;19948;-60
2024/01/04 06:58:16;;;;;;;;;;;;;;;;;;5151336;28;19921;-59
2024/01/04 07:00:47;;;;;;;;;;;;;;;;;;5153439;28;20038;-58
2024/01/04 07:03:19;;;;;;;;;;;;;;;;;;5127898;28;19930;-58
2024/01/04 07:05:50;;;;;;;;;;;;;;;;;;5145070;28;20352;-60
2024/01/04 07:08:22;;;;;;;;;;;;;;;;;;5144035;28;19926;-58
2024/01/04 07:10:53;;;;;;;;;;;;;;;;;;5144221;28;20334;-60
2024/01/04 07:13:25;;;;;;;;;;;;;;;;;;5144466;28;19997;-59
2024/01/04 07:15:56;;;;;;;;;;;;;;;;;;5143681;28;20865;-59
2024/01/04 07:18:27;;;;;;;;;;;;;;;;;;5143503;28;19976;-59
2024/01/04 07:20:58;;;;;;;;;;;;;;;;;;5143798;28;19969;-59
2024/01/04 07:23:30;;;;;;;;;;;;;;;;;;5153337;28;19928;-58
2024/01/04 07:26:02;;;;;;;;;;;;;;;;;;5147531;28;19924;-59
2024/01/04 07:28:33;;;;;;;;;;;;;;;;;;5143334;28;19941;-57
2024/01/04 07:31:04;;;;;;;;;;;;;;;;;;5143546;28;20387;-58
2024/01/04 07:33:35;;;;;;;;;;;;;;;;;;5144200;28;19922;-56
2024/01/04 07:36:06;;;;;;;;;;;;;;;;;;5144027;28;19922;-56
2024/01/04 07:38:37;;;;;;;;;;;;;;;;;;5128002;28;19918;-56
2024/01/04 07:41:08;;;;;;;;;;;;;;;;;;5127669;28;19965;-55
2024/01/04 07:43:39;;;;;;;;;;;;;;;;;;5144304;28;19988;-59
2024/01/04 07:46:10;;;;;;;;;;;;;;;;;;5128192;28;20281;-57
2024/01/04 07:48:41;;;;;;;;;;;;;;;;;;5143322;28;19980;-58
2024/01/04 07:51:12;;;;;;;;;;;;;;;;;;5143451;28;19918;-58
2024/01/04 07:53:43;;;;;;;;;;;;;;;;;;5143251;28;19991;-57
2024/01/04 07:56:14;;;;;;;;;;;;;;;;;;5127578;28;19926;-58
2024/01/04 07:58:45;;;;;;;;;;;;;;;;;;5152133;28;20292;-59
2024/01/04 08:01:16;;;;;;;;;;;;;;;;;;5143512;28;20017;-60
2024/01/04 08:03:47;;;;;;;;;;;;;;;;;;5127313;28;20008;-60
2024/01/04 08:06:18;;;;;;;;;;;;;;;;;;5142571;28;19918;-58
2024/01/04 08:08:50;;;;;;;;;;;;;;;;;;5143101;28;19922;-61
2024/01/04 08:11:22;;;;;;;;;;;;;;;;;;5143537;28;19957;-59
2024/01/04 08:13:53;;;;;;;;;;;;;;;;;;5127376;28;20397;-59
2024/01/04 08:16:24;;;;;;;;;;;;;;;;;;5148002;28;19918;-59
2024/01/04 08:18:55;;;;;;;;;;;;;;;;;;5143239;28;19918;-59
2024/01/04 08:21:26;;;;;;;;;;;;;;;;;;5142198;28;19928;-58
2024/01/04 08:23:57;;;;;;;;;;;;;;;;;;5142663;28;19972;-59
2024/01/04 08:26:28;;;;;;;;;;;;;;;;;;5126487;28;19926;-59
2024/01/04 08:28:59;;;;;;;;;;;;;;;;;;5142616;28;19947;-58
2024/01/04 08:31:32;;;;;;;;;;;;;;;;;;5141967;28;19930;-58
2024/01/04 08:34:03;;;;;;;;;;;;;;;;;;5125947;28;19941;-59
2024/01/04 08:36:34;;;;;;;;;;;;;;;;;;5141635;28;20017;-57
2024/01/04 08:39:05;;;;;;;;;;;;;;;;;;5142231;28;20001;-58
2024/01/04 08:41:36;;;;;;;;;;;;;;;;;;5141266;28;19988;-58
2024/01/04 08:44:07;;;;;;;;;;;;;;;;;;5142230;28;19921;-58
2024/01/04 08:46:38;;;;;;;;;;;;;;;;;;5142222;28;19965;-59
2024/01/04 08:49:09;;;;;;;;;;;;;;;;;;5126151;28;19937;-58
2024/01/04 08:51:40;;;;;;;;;;;;;;;;;;5126586;28;20373;-59
2024/01/04 08:54:11;;;;;;;;;;;;;;;;;;5126512;28;19944;-58
2024/01/04 08:56:42;;;;;;;;;;;;;;;;;;5142219;28;19922;-58
2024/01/04 08:59:13;;;;;;;;;;;;;;;;;;5142376;28;20304;-59
2024/01/04 09:01:44;;;;;;;;;;;;;;;;;;5141856;28;19918;-57
2024/01/04 09:04:15;;;;;;;;;;;;;;;;;;5126759;28;19918;-59
2024/01/04 09:06:46;;;;;;;;;;;;;;;;;;5142461;28;19918;-58
2024/01/04 09:09:17;;;;;;;;;;;;;;;;;;5125639;28;20020;-58
2024/01/04 09:11:49;;;;;;;;;;;;;;;;;;5142090;28;20431;-57
2024/01/04 09:14:20;;;;;;;;;;;;;;;;;;5141250;28;19929;-57
2024/01/04 09:16:51;;;;;;;;;;;;;;;;;;5143082;28;19922;-58
2024/01/04 09:19:22;;;;;;;;;;;;;;;;;;5142126;28;19970;-59
2024/01/04 09:21:53;;;;;;;;;;;;;;;;;;5142077;28;19918;-60
2024/01/04 09:24:24;;;;;;;;;;;;;;;;;;5142025;28;19914;-61
2024/01/04 09:26:55;;;;;;;;;;;;;;;;;;5141778;28;19953;-61
2024/01/04 09:29:26;;;;;;;;;;;;;;;;;;5125791;28;19969;-60
2024/01/04 09:31:57;;;;;;;;;;;;;;;;;;5141233;28;19975;-61
2024/01/04 09:34:29;;;;;;;;;;;;;;;;;;5146826;28;20039;-60
2024/01/04 09:37:00;;;;;;;;;;;;;;;;;;5141304;28;19973;-57
2024/01/04 09:39:31;;;;;;;;;;;;;;;;;;5125441;28;20361;-59
2024/01/04 09:42:02;;;;;;;;;;;;;;;;;;5141195;28;19922;-60
2024/01/04 09:44:33;;;;;;;;;;;;;;;;;;5141290;28;19918;-60
2024/01/04 09:47:04;;;;;;;;;;;;;;;;;;5141049;28;19926;-60
2024/01/04 09:49:35;;;;;;;;;;;;;;;;;;5140775;28;20082;-59
2024/01/04 09:52:09;;;;;;;;;;;;;;;;;;5124866;28;20420;-61
2024/01/04 09:54:40;;;;;;;;;;;;;;;;;;5125364;28;19922;-59
2024/01/04 09:57:12;;;;;;;;;;;;;;;;;;5141866;28;19922;-59
2024/01/04 09:59:43;;;;;;;;;;;;;;;;;;5125967;28;20285;-60
2024/01/04 10:02:14;;;;;;;;;;;;;;;;;;5141455;28;19921;-60
2024/01/04 10:04:45;;;;;;;;;;;;;;;;;;5141527;28;19917;-57
2024/01/04 10:07:17;;;;;;;;;;;;;;;;;;5139985;28;20045;-60
2024/01/04 10:09:48;;;;;;;;;;;;;;;;;;5140942;28;20009;-58
2024/01/04 10:12:20;;;;;;;;;;;;;;;;;;5125050;28;20037;-61
2024/01/04 10:14:51;;;;;;;;;;;;;;;;;;5141058;28;19933;-57
2024/01/04 10:17:22;;;;;;;;;;;;;;;;;;5125634;28;19921;-58
2024/01/04 10:19:53;;;;;;;;;;;;;;;;;;5125014;28;19926;-58
2024/01/04 10:22:24;;;;;;;;;;;;;;;;;;5141790;28;19934;-58
2024/01/04 10:24:55;;;;;;;;;;;;;;;;;;5126324;28;19925;-56
2024/01/04 10:27:26;;;;;;;;;;;;;;;;;;5145441;28;19928;-56
2024/01/04 10:29:57;;;;;;;;;;;;;;;;;;5148720;28;19918;-56
2024/01/04 10:32:28;;;;;;;;;;;;;;;;;;5155383;28;19938;-56
2024/01/04 10:34:59;;;;;;;;;;;;;;;;;;5145190;28;20042;-55
2024/01/04 10:37:31;;;;;;;;;;;;;;;;;;5145192;28;19961;-56
2024/01/04 10:40:03;;;;;;;;;;;;;;;;;;5145488;28;20868;-55
2024/01/04 10:42:34;;;;;;;;;;;;;;;;;;5128866;28;19926;-56
2024/01/04 10:45:07;;;;;;;;;;;;;;;;;;5145057;28;19926;-56
2024/01/04 10:47:41;;;;;;;;;;;;;;;;;;5150981;28;19922;-55
2024/01/04 10:50:12;;;;;;;;;;;;;;;;;;5147590;28;19918;-55
2024/01/04 10:52:43;;;;;;;;;;;;;;;;;;5145664;28;20004;-56
2024/01/04 10:55:15;;;;;;;;;;;;;;;;;;5146992;28;20351;-56
2024/01/04 10:57:46;;;;;;;;;;;;;;;;;;5149205;28;20381;-56
2024/01/04 11:00:17;;;;;;;;;;;;;;;;;;5142095;28;19926;-56
2024/01/04 11:02:48;;;;;;;;;;;;;;;;;;5144133;28;19955;-54
2024/01/04 11:05:20;;;;;;;;;;;;;;;;;;5144348;28;20004;-56
2024/01/04 11:07:51;;;;;;;;;;;;;;;;;;5159907;28;19922;-55
2024/01/04 11:10:22;;;;;;;;;;;;;;;;;;5150492;28;19918;-56
2024/01/04 11:12:55;;;;;;;;;;;;;;;;;;5151832;28;19922;-55
2024/01/04 11:15:26;;;;;;;;;;;;;;;;;;5144424;28;19932;-56
2024/01/04 11:17:59;;;;;;;;;;;;;;;;;;5144590;28;19946;-57
2024/01/04 11:20:30;;;;;;;;;;;;;;;;;;5144669;28;19922;-55
2024/01/04 11:23:02;;;;;;;;;;;;;;;;;;5128787;28;19918;-55
2024/01/04 11:25:33;;;;;;;;;;;;;;;;;;5145158;28;20396;-55
2024/01/04 11:28:04;;;;;;;;;;;;;;;;;;5144568;28;19944;-55
2024/01/04 11:30:35;;;;;;;;;;;;;;;;;;5128619;28;20313;-56
2024/01/04 11:33:06;;;;;;;;;;;;;;;;;;5144723;28;19926;-56
2024/01/04 11:35:38;;;;;;;;;;;;;;;;;;5143005;28;19922;-55
2024/01/04 11:38:09;;;;;;;;;;;;;;;;;;5144000;28;19985;-56
2024/01/04 11:40:40;;;;;;;;;;;;;;;;;;5143444;28;19918;-55
2024/01/04 11:43:11;;;;;;;;;;;;;;;;;;5144385;28;19965;-55
2024/01/04 11:45:43;;;;;;;;;;;;;;;;;;5128012;28;19929;-54
2024/01/04 11:48:14;;;;;;;;;;;;;;;;;;5144327;28;19922;-55
2024/01/04 11:50:44;;;;;;;;;;;;;;;;;;5148951;28;20314;-54
2024/01/04 11:53:16;;;;;;;;;;;;;;;;;;5147749;28;19924;-54
2024/01/04 11:55:47;;;;;;;;;;;;;;;;;;5127792;28;19922;-54
2024/01/04 11:58:19;;;;;;;;;;;;;;;;;;5143859;28;20012;-56
2024/01/04 12:00:51;;;;;;;;;;;;;;;;;;5127610;28;19969;-55
2024/01/04 12:03:22;;;;;;;;;;;;;;;;;;5127696;28;19925;-55
2024/01/04 12:05:56;;;;;;;;;;;;;;;;;;5127584;28;19918;-54
2024/01/04 12:08:30;;;;;;;;;;;;;;;;;;5127740;28;19925;-57
2024/01/04 12:11:04;;;;;;;;;;;;;;;;;;5147447;28;20368;-58
2024/01/04 12:13:35;;;;;;;;;;;;;;;;;;5127689;28;19917;-56
2024/01/04 12:16:06;;;;;;;;;;;;;;;;;;5143742;28;20088;-55
2024/01/04 12:18:37;;;;;;;;;;;;;;;;;;5143809;28;20388;-57
2024/01/04 12:21:10;;;;;;;;;;;;;;;;;;5150163;28;20361;-54
2024/01/04 12:23:41;;;;;;;;;;;;;;;;;;5147671;28;20361;-56
2024/01/04 12:26:12;;;;;;;;;;;;;;;;;;5127495;28;19914;-57
2024/01/04 12:28:43;;;;;;;;;;;;;;;;;;5143560;28;19969;-55
2024/01/04 12:31:14;;;;;;;;;;;;;;;;;;5143131;28;19925;-58
2024/01/04 12:33:49;;;;;;;;;;;;;;;;;;5143105;28;19922;-57
2024/01/04 12:36:21;;;;;;;;;;;;;;;;;;5142965;28;20032;-58
2024/01/04 12:38:53;;;;;;;;;;;;;;;;;;5127243;28;20370;-56
2024/01/04 12:41:24;;;;;;;;;;;;;;;;;;5126916;28;19948;-59
2024/01/04 12:43:55;;;;;;;;;;;;;;;;;;5145080;28;20369;-58
2024/01/04 12:46:27;;;;;;;;;;;;;;;;;;5148078;28;19918;-57
2024/01/04 12:48:58;;;;;;;;;;;;;;;;;;5126265;28;19922;-57
2024/01/04 12:51:29;;;;;;;;;;;;;;;;;;5144891;28;20313;-59
2024/01/04 12:54:00;;;;;;;;;;;;;;;;;;5143179;28;19922;-60
2024/01/04 12:56:31;;;;;;;;;;;;;;;;;;5155654;28;19929;-57
2024/01/04 12:59:04;;;;;;;;;;;;;;;;;;5125578;28;19922;-59
2024/01/04 13:01:35;;;;;;;;;;;;;;;;;;5142436;28;19922;-59
2024/01/04 13:04:07;;;;;;;;;;;;;;;;;;5126568;28;19994;-61
2024/01/04 13:06:38;;;;;;;;;;;;;;;;;;5127013;28;20242;-60
2024/01/04 13:09:14;;;;;;;;;;;;;;;;;;5142051;28;19965;-61
2024/01/04 13:11:45;;;;;;;;;;;;;;;;;;5126511;28;19918;-61
2024/01/04 13:14:16;;;;;;;;;;;;;;;;;;5126038;28;20040;-60
2024/01/04 13:16:50;;;;;;;;;;;;;;;;;;5125842;28;19981;-60
2024/01/04 13:19:21;;;;;;;;;;;;;;;;;;5141624;28;19925;-60
2024/01/04 13:21:55;;;;;;;;;;;;;;;;;;5142707;28;20349;-61
2024/01/04 13:24:26;;;;;;;;;;;;;;;;;;5125563;28;19925;-62
2024/01/04 13:26:57;;;;;;;;;;;;;;;;;;5125747;28;19956;-64
2024/01/04 13:29:29;;;;;;;;;;;;;;;;;;5140486;28;19918;-60
2024/01/04 13:32:00;;;;;;;;;;;;;;;;;;5141966;28;19926;-61
2024/01/04 13:34:31;;;;;;;;;;;;;;;;;;5138301;28;19976;-61
2024/01/04 13:37:03;;;;;;;;;;;;;;;;;;5120885;28;19926;-62
2024/01/04 13:39:34;;;;;;;;;;;;;;;;;;5140706;28;20376;-61
2024/01/04 13:42:05;;;;;;;;;;;;;;;;;;5142147;28;19933;-61
2024/01/04 13:44:36;;;;;;;;;;;;;;;;;;5141421;28;20669;-61
2024/01/04 13:47:07;;;;;;;;;;;;;;;;;;5092598;28;20022;-61
2024/01/04 13:49:39;;;;;;;;;;;;;;;;;;5138854;28;19921;-61
2024/01/04 13:52:10;;;;;;;;;;;;;;;;;;5140494;28;19925;-62
2024/01/04 13:54:42;;;;;;;;;;;;;;;;;;5125669;28;19925;-60
2024/01/04 13:57:13;;;;;;;;;;;;;;;;;;5141452;28;19925;-62
2024/01/04 13:59:44;;;;;;;;;;;;;;;;;;5121418;28;19918;-60
2024/01/04 14:02:15;;;;;;;;;;;;;;;;;;5161753;28;20014;-60
2024/01/04 14:04:46;;;;;;;;;;;;;;;;;;5144948;28;19922;-62
2024/01/04 14:07:17;;;;;;;;;;;;;;;;;;5148775;28;19928;-62
2024/01/04 14:09:48;;;;;;;;;;;;;;;;;;5129918;28;19961;-61
2024/01/04 14:12:19;;;;;;;;;;;;;;;;;;5128417;28;19961;-60
2024/01/04 14:14:50;;;;;;;;;;;;;;;;;;5129206;28;19925;-62
2024/01/04 14:17:21;;;;;;;;;;;;;;;;;;5145467;28;20424;-61
2024/01/04 14:19:53;;;;;;;;;;;;;;;;;;5143935;28;20016;-61
2024/01/04 14:22:24;;;;;;;;;;;;;;;;;;5133392;28;19918;-62
2024/01/04 14:24:55;;;;;;;;;;;;;;;;;;5135343;28;20333;-62
2024/01/04 14:27:26;;;;;;;;;;;;;;;;;;5144451;28;20386;-62
2024/01/04 14:29:57;;;;;;;;;;;;;;;;;;5148749;28;19918;-63
2024/01/04 14:32:31;;;;;;;;;;;;;;;;;;5146134;28;19973;-62
2024/01/04 14:35:06;;;;;;;;;;;;;;;;;;5128706;28;19918;-62
2024/01/04 14:37:40;;;;;;;;;;;;;;;;;;5143880;28;19957;-61
2024/01/04 14:40:16;;;;;;;;;;;;;;;;;;5128031;28;19918;-62
2024/01/04 14:42:50;;;;;;;;;;;;;;;;;;5145088;28;19918;-62
2024/01/04 14:45:21;;;;;;;;;;;;;;;;;;5135616;28;19921;-64
2024/01/04 14:47:52;;;;;;;;;;;;;;;;;;5134415;28;19926;-61
2024/01/04 14:50:23;;;;;;;;;;;;;;;;;;5127180;28;20262;-61
2024/01/04 14:52:56;;;;;;;;;;;;;;;;;;5128229;28;19970;-62
2024/01/04 14:55:27;;;;;;;;;;;;;;;;;;5144063;28;19925;-61
2024/01/04 14:57:58;;;;;;;;;;;;;;;;;;5127964;28;19917;-62
2024/01/04 15:00:29;;;;;;;;;;;;;;;;;;5127738;28;20009;-62
2024/01/04 15:03:00;;;;;;;;;;;;;;;;;;5147760;28;19964;-62
2024/01/04 15:05:31;;;;;;;;;;;;;;;;;;5149081;28;19922;-62
2024/01/04 15:08:02;;;;;;;;;;;;;;;;;;5128004;28;20352;-62
2024/01/04 15:10:34;;;;;;;;;;;;;;;;;;5142689;28;19918;-60
2024/01/04 15:13:05;;;;;;;;;;;;;;;;;;5144580;28;20013;-61
2024/01/04 15:15:37;;;;;;;;;;;;;;;;;;5126401;28;19988;-61
2024/01/04 15:18:08;;;;;;;;;;;;;;;;;;5143075;28;19918;-62
2024/01/04 15:20:39;;;;;;;;;;;;;;;;;;5143904;28;19922;-62
2024/01/04 15:23:10;;;;;;;;;;;;;;;;;;5143857;28;19973;-62
2024/01/04 15:25:41;;;;;;;;;;;;;;;;;;5144059;28;20377;-61
2024/01/04 15:28:12;;;;;;;;;;;;;;;;;;5142197;28;20020;-62
2024/01/04 15:30:43;;;;;;;;;;;;;;;;;;5143022;28;19918;-63
2024/01/04 15:33:14;;;;;;;;;;;;;;;;;;5128478;28;19977;-58
2024/01/04 15:35:45;;;;;;;;;;;;;;;;;;5143082;28;19926;-62
2024/01/04 15:38:17;;;;;;;;;;;;;;;;;;5127329;28;19922;-60
2024/01/04 15:40:48;;;;;;;;;;;;;;;;;;5130457;28;20373;-61
2024/01/04 15:43:20;;;;;;;;;;;;;;;;;;5139473;28;19918;-60
2024/01/04 15:45:51;;;;;;;;;;;;;;;;;;5143241;28;19930;-59
2024/01/04 15:48:24;;;;;;;;;;;;;;;;;;5143263;28;19922;-60
2024/01/04 15:50:58;;;;;;;;;;;;;;;;;;5142821;28;19922;-59
2024/01/04 15:53:29;;;;;;;;;;;;;;;;;;5127942;28;20329;-59
2024/01/04 15:56:00;;;;;;;;;;;;;;;;;;5142889;28;19918;-58
2024/01/04 15:58:31;;;;;;;;;;;;;;;;;;5143321;28;19918;-58
2024/01/04 16:01:02;;;;;;;;;;;;;;;;;;5127008;28;19918;-59
2024/01/04 16:03:33;;;;;;;;;;;;;;;;;;5144117;28;19969;-59
2024/01/04 16:06:04;;;;;;;;;;;;;;;;;;5143611;28;19921;-58
2024/01/04 16:08:36;;;;;;;;;;;;;;;;;;5145773;28;19922;-59
2024/01/04 16:11:07;;;;;;;;;;;;;;;;;;5142741;28;19922;-61
2024/01/04 16:13:38;;;;;;;;;;;;;;;;;;5127143;28;20377;-58
2024/01/04 16:16:09;;;;;;;;;;;;;;;;;;5126969;28;19950;-59
2024/01/04 16:18:40;;;;;;;;;;;;;;;;;;5126998;28;19962;-58
2024/01/04 16:21:11;;;;;;;;;;;;;;;;;;5149443;28;19968;-60
2024/01/04 16:23:42;;;;;;;;;;;;;;;;;;5139427;28;19942;-60
2024/01/04 16:26:13;;;;;;;;;;;;;;;;;;5141995;28;20060;-60
2024/01/04 16:28:44;;;;;;;;;;;;;;;;;;5142290;28;20008;-59
2024/01/04 16:31:15;;;;;;;;;;;;;;;;;;5122299;28;20008;-60
2024/01/04 16:33:47;;;;;;;;;;;;;;;;;;5140509;28;20005;-61
2024/01/04 16:36:25;;;;;;;;;;;;;;;;;;5139936;28;19925;-60
2024/01/04 16:38:56;;;;;;;;;;;;;;;;;;5143405;28;20370;-57
2024/01/04 16:41:28;;;;;;;;;;;;;;;;;;5141569;28;19948;-57
2024/01/04 16:44:14;;;;;;;;;;;;;;;;;;5304867;27;19960;-58
2024/01/04 16:46:45;;;;;;;;;;;;;;;;;;5301365;28;20267;-58
2024/01/04 16:49:16;;;;;;;;;;;;;;;;;;5276921;28;19962;-58
2024/01/04 16:51:47;;;;;;;;;;;;;;;;;;5288968;28;19966;-57
2024/01/04 16:54:18;;;;;;;;;;;;;;;;;;5278420;28;19924;-57
2024/01/04 16:56:49;;;;;;;;;;;;;;;;;;5284114;28;20068;-57
2024/01/04 16:59:20;;;;;;;;;;;;;;;;;;5292518;28;20371;-59
2024/01/04 17:01:51;;;;;;;;;;;;;;;;;;5290533;28;19923;-57
2024/01/04 17:04:22;;;;;;;;;;;;;;;;;;5295890;28;19923;-58
2024/01/04 17:06:53;;;;;;;;;;;;;;;;;;5286352;28;20018;-57
2024/01/04 17:09:25;;;;;;;;;;;;;;;;;;5291510;28;20015;-58
2024/01/04 17:11:56;;;;;;;;;;;;;;;;;;5290176;28;19924;-58
2024/01/04 17:14:27;;;;;;;;;;;;;;;;;;5295880;28;19926;-58